Time,TemperatureF,DewpointF,PressureIn,WindDirection,WindDirectionDegrees,WindSpeedMPH,WindSpeedGustMPH,Humidity,HourlyPrecipIn,Conditions,Clouds,dailyrainin,SoftwareType,DateUTC
2013-05-11 00:01:00,63.3,57.4,29.32,NNE,16,6.0,8.2,81,0.00,,---,0.00,VWS V14.00,2013-05-11 05:01:00,
2013-05-11 00:06:00,63.0,57.0,29.32,North,1,8.7,11.5,81,0.00,,---,0.00,VWS V14.00,2013-05-11 05:06:00,
2013-05-11 00:11:00,63.0,57.0,29.32,North,357,8.1,14.7,81,0.00,,---,0.00,VWS V14.00,2013-05-11 05:11:00,
2013-05-11 00:16:00,62.8,56.9,29.32,North,357,8.1,12.3,81,0.00,,---,0.00,VWS V14.00,2013-05-11 05:16:00,
2013-05-11 00:21:00,62.6,56.7,29.32,NNE,31,12.1,15.5,81,0.00,,---,0.00,VWS V14.00,2013-05-11 05:21:00,
2013-05-11 00:26:00,62.4,56.5,29.32,North,0,12.1,15.5,81,0.00,,---,0.00,VWS V14.00,2013-05-11 05:26:00,
2013-05-11 00:31:00,62.2,56.0,29.32,North,357,9.4,13.9,80,0.00,,---,0.00,VWS V14.00,2013-05-11 05:31:00,
2013-05-11 00:36:00,62.2,56.0,29.32,North,353,13.1,16.7,80,0.00,,---,0.00,VWS V14.00,2013-05-11 05:36:00,
2013-05-11 00:41:00,62.1,55.5,29.32,North,353,13.1,16.7,79,0.00,,---,0.00,VWS V14.00,2013-05-11 05:41:00,
2013-05-11 00:46:00,61.9,55.3,29.32,NE,34,6.0,8.2,79,0.00,,---,0.00,VWS V14.00,2013-05-11 05:46:00,
2013-05-11 00:51:00,61.9,55.0,29.32,North,357,8.1,10.7,78,0.00,,---,0.00,VWS V14.00,2013-05-11 05:51:00,
2013-05-11 00:56:00,61.7,54.8,29.32,North,1,9.4,12.3,78,0.00,,---,0.00,VWS V14.00,2013-05-11 05:56:00,
2013-05-11 01:01:00,61.7,54.4,29.32,North,357,5.4,9.9,77,0.00,,---,0.00,VWS V14.00,2013-05-11 06:01:00,
2013-05-11 01:06:00,61.5,54.2,29.32,NNE,21,7.4,9.9,77,0.00,,---,0.00,VWS V14.00,2013-05-11 06:06:00,
2013-05-11 01:11:00,61.5,54.2,29.32,NNW,333,7.4,10.7,77,0.00,,---,0.00,VWS V14.00,2013-05-11 06:11:00,
2013-05-11 01:16:00,61.3,54.4,29.32,North,11,8.7,12.3,78,0.00,,---,0.00,VWS V14.00,2013-05-11 06:16:00,
2013-05-11 01:21:00,61.2,54.3,29.32,North,5,9.4,12.3,78,0.00,,---,0.00,VWS V14.00,2013-05-11 06:21:00,
2013-05-11 01:26:00,61.2,54.3,29.32,NNE,14,6.0,8.2,78,0.00,,---,0.00,VWS V14.00,2013-05-11 06:26:00,
2013-05-11 01:31:00,61.2,54.3,29.32,NNE,19,5.4,7.4,78,0.00,,---,0.00,VWS V14.00,2013-05-11 06:31:00,
2013-05-11 01:36:00,61.0,54.1,29.29,NNE,17,7.4,10.7,78,0.00,,---,0.00,VWS V14.00,2013-05-11 06:36:00,
2013-05-11 01:41:00,60.6,53.7,29.29,North,6,7.4,11.5,78,0.00,,---,0.00,VWS V14.00,2013-05-11 06:41:00,
2013-05-11 01:46:00,60.3,53.7,29.29,North,2,8.7,11.5,79,0.00,,---,0.00,VWS V14.00,2013-05-11 06:46:00,
2013-05-11 01:51:00,60.1,53.6,29.29,North,353,4.7,8.2,79,0.00,,---,0.00,VWS V14.00,2013-05-11 06:51:00,
2013-05-11 01:56:00,60.1,53.6,29.32,North,5,4.0,6.6,79,0.00,,---,0.00,VWS V14.00,2013-05-11 06:56:00,
2013-05-11 02:01:00,60.1,53.9,29.32,NNE,22,6.0,8.2,80,0.00,,---,0.00,VWS V14.00,2013-05-11 07:01:00,
2013-05-11 02:06:00,60.1,53.9,29.32,North,1,7.4,9.9,80,0.00,,---,0.00,VWS V14.00,2013-05-11 07:06:00,
2013-05-11 02:11:00,60.1,53.9,29.32,North,2,5.4,7.4,80,0.00,,---,0.00,VWS V14.00,2013-05-11 07:11:00,
2013-05-11 02:16:00,59.9,53.7,29.32,North,357,0.0,6.6,80,0.00,,---,0.00,VWS V14.00,2013-05-11 07:16:00,
2013-05-11 02:21:00,59.7,53.5,29.32,North,357,0.0,1.0,80,0.00,,---,0.00,VWS V14.00,2013-05-11 07:21:00,
2013-05-11 02:26:00,59.7,53.5,29.32,NNW,340,0.0,1.0,80,0.00,,---,0.00,VWS V14.00,2013-05-11 07:26:00,
2013-05-11 02:31:00,59.5,53.4,29.32,North,5,0.0,1.0,80,0.00,,---,0.00,VWS V14.00,2013-05-11 07:31:00,
2013-05-11 02:36:00,59.2,53.0,29.32,North,1,5.4,8.2,80,0.00,,---,0.00,VWS V14.00,2013-05-11 07:36:00,
2013-05-11 02:41:00,59.0,52.8,29.32,North,7,0.0,1.0,80,0.00,,---,0.00,VWS V14.00,2013-05-11 07:41:00,
2013-05-11 02:46:00,58.8,53.0,29.32,North,357,0.0,1.0,81,0.00,,---,0.00,VWS V14.00,2013-05-11 07:46:00,
2013-05-11 02:51:00,58.8,53.0,29.32,North,357,0.0,1.0,81,0.00,,---,0.00,VWS V14.00,2013-05-11 07:51:00,
2013-05-11 02:56:00,58.6,53.2,29.32,North,357,5.4,7.4,82,0.00,,---,0.00,VWS V14.00,2013-05-11 07:56:00,
2013-05-11 03:01:00,58.5,53.0,29.32,North,357,4.0,5.8,82,0.00,,---,0.00,VWS V14.00,2013-05-11 08:01:00,
2013-05-11 03:06:00,58.3,52.8,29.32,NNE,13,4.0,7.4,82,0.00,,---,0.00,VWS V14.00,2013-05-11 08:06:00,
2013-05-11 03:11:00,57.9,52.5,29.32,NNE,13,0.0,1.0,82,0.00,,---,0.00,VWS V14.00,2013-05-11 08:11:00,
2013-05-11 03:16:00,57.7,52.6,29.32,NNE,13,0.0,1.0,83,0.00,,---,0.00,VWS V14.00,2013-05-11 08:16:00,
2013-05-11 03:21:00,57.7,52.6,29.29,North,1,0.0,5.8,83,0.00,,---,0.00,VWS V14.00,2013-05-11 08:21:00,
2013-05-11 03:26:00,57.4,52.3,29.29,North,7,4.0,5.8,83,0.00,,---,0.00,VWS V14.00,2013-05-11 08:26:00,
2013-05-11 03:31:00,57.2,52.1,29.29,North,0,4.7,6.6,83,0.00,,---,0.00,VWS V14.00,2013-05-11 08:31:00,
2013-05-11 03:36:00,57.2,52.1,29.29,North,0,3.4,5.0,83,0.00,,---,0.00,VWS V14.00,2013-05-11 08:36:00,
2013-05-11 03:41:00,57.0,52.2,29.29,North,3,0.0,1.0,84,0.00,,---,0.00,VWS V14.00,2013-05-11 08:41:00,
2013-05-11 03:46:00,57.0,52.2,29.29,North,357,0.0,1.0,84,0.00,,---,0.00,VWS V14.00,2013-05-11 08:46:00,
2013-05-11 03:51:00,56.8,52.1,29.29,North,10,0.0,1.0,84,0.00,,---,0.00,VWS V14.00,2013-05-11 08:51:00,
2013-05-11 03:56:00,56.7,52.2,29.29,North,4,4.7,6.6,85,0.00,,---,0.00,VWS V14.00,2013-05-11 08:56:00,
2013-05-11 04:01:00,56.5,52.0,29.29,North,357,0.0,1.0,85,0.00,,---,0.00,VWS V14.00,2013-05-11 09:01:00,
2013-05-11 04:06:00,56.3,51.9,29.32,NNW,334,0.0,1.0,85,0.00,,---,0.00,VWS V14.00,2013-05-11 09:06:00,
2013-05-11 04:11:00,56.3,51.9,29.32,North,349,0.0,1.0,85,0.00,,---,0.00,VWS V14.00,2013-05-11 09:11:00,
2013-05-11 04:16:00,56.3,51.9,29.32,North,349,0.0,1.0,85,0.00,,---,0.00,VWS V14.00,2013-05-11 09:16:00,
2013-05-11 04:21:00,56.3,52.2,29.32,West,276,0.0,1.0,86,0.00,,---,0.00,VWS V14.00,2013-05-11 09:21:00,
2013-05-11 04:26:00,56.1,52.0,29.32,NNW,329,0.0,1.0,86,0.00,,---,0.00,VWS V14.00,2013-05-11 09:26:00,
2013-05-11 04:31:00,56.1,52.0,29.32,NNW,329,0.0,1.0,86,0.00,,---,0.00,VWS V14.00,2013-05-11 09:31:00,
2013-05-11 04:36:00,56.3,52.5,29.32,NNW,329,0.0,1.0,87,0.00,,---,0.00,VWS V14.00,2013-05-11 09:36:00,
2013-05-11 04:41:00,56.3,52.5,29.32,ENE,71,0.0,1.0,87,0.00,,---,0.00,VWS V14.00,2013-05-11 09:41:00,
2013-05-11 04:46:00,56.3,52.5,29.32,WSW,251,0.0,1.0,87,0.00,,---,0.00,VWS V14.00,2013-05-11 09:46:00,
2013-05-11 04:51:00,56.3,52.8,29.32,NW,314,0.0,1.0,88,0.00,,---,0.00,VWS V14.00,2013-05-11 09:51:00,
2013-05-11 04:56:00,56.3,52.8,29.32,North,3,4.7,6.6,88,0.00,,---,0.00,VWS V14.00,2013-05-11 09:56:00,
2013-05-11 05:01:00,56.3,52.8,29.32,North,353,7.4,9.9,88,0.00,,---,0.00,VWS V14.00,2013-05-11 10:01:00,
2013-05-11 05:06:00,56.3,52.8,29.29,North,357,4.7,7.4,88,0.00,,---,0.00,VWS V14.00,2013-05-11 10:06:00,
2013-05-11 05:11:00,56.1,52.6,29.29,North,357,4.0,7.4,88,0.00,,---,0.00,VWS V14.00,2013-05-11 10:11:00,
2013-05-11 05:16:00,55.9,52.4,29.29,North,11,4.0,5.8,88,0.00,,---,0.00,VWS V14.00,2013-05-11 10:16:00,
2013-05-11 05:21:00,55.9,52.4,29.29,North,353,0.0,1.0,88,0.00,,---,0.00,VWS V14.00,2013-05-11 10:21:00,
2013-05-11 05:26:00,55.9,52.4,29.29,North,6,0.0,1.0,88,0.00,,---,0.00,VWS V14.00,2013-05-11 10:26:00,
2013-05-11 05:31:00,55.9,52.4,29.29,North,6,0.0,1.0,88,0.00,,---,0.00,VWS V14.00,2013-05-11 10:31:00,
2013-05-11 05:36:00,55.9,52.4,29.32,North,357,0.0,1.0,88,0.00,,---,0.00,VWS V14.00,2013-05-11 10:36:00,
2013-05-11 05:41:00,55.9,52.4,29.32,North,357,0.0,1.0,88,0.00,,---,0.00,VWS V14.00,2013-05-11 10:41:00,
2013-05-11 05:46:00,55.9,52.4,29.32,NNW,331,0.0,1.0,88,0.00,,---,0.00,VWS V14.00,2013-05-11 10:46:00,
2013-05-11 05:51:00,55.9,52.4,29.32,NNE,13,3.4,7.4,88,0.00,,---,0.00,VWS V14.00,2013-05-11 10:51:00,
2013-05-11 05:56:00,55.9,52.4,29.32,North,353,7.4,9.9,88,0.00,,---,0.00,VWS V14.00,2013-05-11 10:56:00,
2013-05-11 06:01:00,56.1,52.9,29.32,NW,325,0.0,1.0,89,0.00,,---,0.00,VWS V14.00,2013-05-11 11:01:00,
2013-05-11 06:06:00,56.1,52.9,29.32,North,10,0.0,1.0,89,0.00,,---,0.00,VWS V14.00,2013-05-11 11:06:00,
2013-05-11 06:11:00,56.1,52.9,29.32,NNW,337,0.0,1.0,89,0.00,,---,0.00,VWS V14.00,2013-05-11 11:11:00,
2013-05-11 06:16:00,56.1,52.9,29.32,West,268,0.0,1.0,89,0.00,,---,0.00,VWS V14.00,2013-05-11 11:16:00,
2013-05-11 06:21:00,56.3,53.1,29.32,WNW,290,0.0,1.0,89,0.00,,---,0.00,VWS V14.00,2013-05-11 11:21:00,
2013-05-11 06:26:00,56.3,52.8,29.32,WNW,290,0.0,1.0,88,0.00,,---,0.00,VWS V14.00,2013-05-11 11:26:00,
2013-05-11 06:31:00,56.3,52.8,29.32,NNW,339,0.0,5.8,88,0.00,,---,0.00,VWS V14.00,2013-05-11 11:31:00,
2013-05-11 06:36:00,56.5,53.0,29.35,NNW,336,0.0,1.0,88,0.00,,---,0.00,VWS V14.00,2013-05-11 11:36:00,
2013-05-11 06:41:00,56.5,53.0,29.35,NNW,345,0.0,1.0,88,0.00,,---,0.00,VWS V14.00,2013-05-11 11:41:00,
2013-05-11 06:46:00,56.7,52.8,29.35,North,357,6.0,8.2,87,0.00,,---,0.00,VWS V14.00,2013-05-11 11:46:00,
2013-05-11 06:51:00,56.7,52.8,29.35,North,11,6.0,8.2,87,0.00,,---,0.00,VWS V14.00,2013-05-11 11:51:00,
2013-05-11 06:56:00,56.7,52.8,29.35,North,357,5.4,8.2,87,0.00,,---,0.00,VWS V14.00,2013-05-11 11:56:00,
2013-05-11 07:01:00,56.7,52.8,29.35,North,357,5.4,7.4,87,0.00,,---,0.00,VWS V14.00,2013-05-11 12:01:00,
2013-05-11 07:06:00,56.8,53.0,29.35,North,3,5.4,9.9,87,0.00,,---,0.00,VWS V14.00,2013-05-11 12:06:00,
2013-05-11 07:11:00,56.8,53.0,29.35,North,0,6.0,10.7,87,0.00,,---,0.00,VWS V14.00,2013-05-11 12:11:00,
2013-05-11 07:16:00,56.8,52.7,29.35,North,3,0.0,1.0,86,0.00,,---,0.00,VWS V14.00,2013-05-11 12:16:00,
2013-05-11 07:21:00,56.8,52.7,29.32,NNE,13,4.0,8.2,86,0.00,,---,0.00,VWS V14.00,2013-05-11 12:21:00,
2013-05-11 07:26:00,56.8,52.7,29.32,North,5,8.1,10.7,86,0.00,,---,0.00,VWS V14.00,2013-05-11 12:26:00,
2013-05-11 07:31:00,56.8,52.7,29.32,North,2,5.4,7.4,86,0.00,,---,0.00,VWS V14.00,2013-05-11 12:31:00,
2013-05-11 07:36:00,57.0,52.9,29.32,NNE,14,8.7,11.5,86,0.00,,---,0.00,VWS V14.00,2013-05-11 12:36:00,
2013-05-11 07:41:00,57.2,52.7,29.32,North,357,13.8,17.5,85,0.00,,---,0.00,VWS V14.00,2013-05-11 12:41:00,
2013-05-11 07:46:00,57.4,52.9,29.32,North,9,8.1,10.7,85,0.00,,---,0.00,VWS V14.00,2013-05-11 12:46:00,
2013-05-11 07:51:00,57.7,53.0,29.32,NNE,12,15.8,19.9,84,0.00,,---,0.00,VWS V14.00,2013-05-11 12:51:00,
2013-05-11 07:56:00,58.1,53.3,29.32,North,357,9.4,12.3,84,0.00,,---,0.00,VWS V14.00,2013-05-11 12:56:00,
2013-05-11 08:01:00,58.3,52.8,29.32,NNW,333,8.1,12.3,82,0.00,,---,0.00,VWS V14.00,2013-05-11 13:01:00,
2013-05-11 08:06:00,58.3,52.2,29.32,North,0,12.1,15.5,80,0.00,,---,0.00,VWS V14.00,2013-05-11 13:06:00,
2013-05-11 08:11:00,58.3,52.2,29.35,NNW,338,5.4,14.7,80,0.00,,---,0.00,VWS V14.00,2013-05-11 13:11:00,
2013-05-11 08:16:00,58.1,51.6,29.35,NNW,335,8.1,11.5,79,0.00,,---,0.00,VWS V14.00,2013-05-11 13:16:00,
2013-05-11 08:21:00,58.3,51.5,29.35,NNE,18,11.4,14.7,78,0.00,,---,0.00,VWS V14.00,2013-05-11 13:21:00,
2013-05-11 08:26:00,58.1,50.9,29.35,North,357,10.7,13.9,77,0.00,,---,0.00,VWS V14.00,2013-05-11 13:26:00,
2013-05-11 08:31:00,58.1,50.6,29.35,North,353,11.4,14.7,76,0.00,,---,0.00,VWS V14.00,2013-05-11 13:31:00,
2013-05-11 08:36:00,57.9,50.0,29.35,North,357,9.4,12.3,75,0.00,,---,0.00,VWS V14.00,2013-05-11 13:36:00,
2013-05-11 08:41:00,57.9,50.0,29.35,NNW,339,0.0,5.0,75,0.00,,---,0.00,VWS V14.00,2013-05-11 13:41:00,
2013-05-11 08:46:00,58.1,50.6,29.35,West,270,4.7,6.6,76,0.00,,---,0.00,VWS V14.00,2013-05-11 13:46:00,
2013-05-11 08:51:00,58.1,50.2,29.35,North,5,4.7,6.6,75,0.00,,---,0.00,VWS V14.00,2013-05-11 13:51:00,
2013-05-11 08:56:00,57.9,50.0,29.35,NW,326,0.0,5.8,75,0.00,,---,0.00,VWS V14.00,2013-05-11 13:56:00,
2013-05-11 09:01:00,57.9,49.7,29.35,NW,323,6.0,10.7,74,0.00,,---,0.00,VWS V14.00,2013-05-11 14:01:00,
2013-05-11 09:06:00,57.9,49.7,29.35,North,7,6.0,10.7,74,0.00,,---,0.00,VWS V14.00,2013-05-11 14:06:00,
2013-05-11 09:11:00,57.9,50.0,29.35,North,353,8.1,15.9,75,0.00,,---,0.00,VWS V14.00,2013-05-11 14:11:00,
2013-05-11 09:16:00,57.9,50.0,29.35,North,353,6.0,8.2,75,0.00,,---,0.00,VWS V14.00,2013-05-11 14:16:00,
2013-05-11 09:21:00,57.9,50.0,29.35,NNE,12,8.7,13.1,75,0.00,,---,0.00,VWS V14.00,2013-05-11 14:21:00,
2013-05-11 09:26:00,57.9,50.0,29.35,NW,324,0.0,1.0,75,0.00,,---,0.00,VWS V14.00,2013-05-11 14:26:00,
2013-05-11 09:31:00,57.6,49.3,29.35,WNW,301,0.0,1.0,74,0.00,,---,0.00,VWS V14.00,2013-05-11 14:31:00,
2013-05-11 09:36:00,57.7,49.5,29.35,NNW,336,0.0,6.6,74,0.00,,---,0.00,VWS V14.00,2013-05-11 14:36:00,
2013-05-11 09:41:00,57.6,49.3,29.35,North,357,8.1,10.7,74,0.00,,---,0.00,VWS V14.00,2013-05-11 14:41:00,
2013-05-11 09:46:00,57.6,49.0,29.35,NNW,339,5.4,7.4,73,0.00,,---,0.00,VWS V14.00,2013-05-11 14:46:00,
2013-05-11 09:51:00,57.4,48.8,29.38,North,0,3.4,8.2,73,0.00,,---,0.00,VWS V14.00,2013-05-11 14:51:00,
2013-05-11 09:56:00,57.4,48.8,29.38,West,265,5.4,7.4,73,0.00,,---,0.00,VWS V14.00,2013-05-11 14:56:00,
2013-05-11 10:01:00,57.6,49.3,29.38,NNW,335,0.0,1.0,74,0.00,,---,0.00,VWS V14.00,2013-05-11 15:01:00,
2013-05-11 10:06:00,57.6,49.3,29.38,NW,315,4.0,6.6,74,0.00,,---,0.00,VWS V14.00,2013-05-11 15:06:00,
2013-05-11 10:11:00,57.6,49.3,29.38,NW,318,0.0,1.0,74,0.00,,---,0.00,VWS V14.00,2013-05-11 15:11:00,
2013-05-11 10:16:00,57.6,49.3,29.38,NNW,338,4.0,5.8,74,0.00,,---,0.00,VWS V14.00,2013-05-11 15:16:00,
2013-05-11 10:21:00,57.6,49.3,29.38,NNW,338,5.4,7.4,74,0.00,,---,0.00,VWS V14.00,2013-05-11 15:21:00,
2013-05-11 10:26:00,57.6,49.3,29.38,NNW,331,4.7,6.6,74,0.00,,---,0.00,VWS V14.00,2013-05-11 15:26:00,
2013-05-11 10:31:00,57.4,48.8,29.38,NNW,335,5.4,7.4,73,0.00,,---,0.00,VWS V14.00,2013-05-11 15:31:00,
2013-05-11 10:36:00,57.6,49.0,29.38,NNE,14,4.0,5.8,73,0.00,,---,0.00,VWS V14.00,2013-05-11 15:36:00,
2013-05-11 10:41:00,57.6,49.0,29.38,WSW,252,4.0,5.8,73,0.00,,---,0.00,VWS V14.00,2013-05-11 15:41:00,
2013-05-11 10:46:00,57.6,49.0,29.38,WNW,298,0.0,1.0,73,0.00,,---,0.00,VWS V14.00,2013-05-11 15:46:00,
2013-05-11 10:51:00,57.9,49.3,29.38,NNW,332,8.1,10.7,73,0.00,,---,0.00,VWS V14.00,2013-05-11 15:51:00,
2013-05-11 10:56:00,58.6,50.0,29.38,NNW,335,5.4,7.4,73,0.00,,---,0.00,VWS V14.00,2013-05-11 15:56:00,
2013-05-11 11:01:00,59.2,50.5,29.38,NW,313,4.7,6.6,73,0.00,,---,0.00,VWS V14.00,2013-05-11 16:01:00,
2013-05-11 11:06:00,59.4,50.0,29.38,West,265,6.0,8.2,71,0.00,,---,0.00,VWS V14.00,2013-05-11 16:06:00,
2013-05-11 11:11:00,59.2,49.8,29.38,NW,311,7.4,9.9,71,0.00,,---,0.00,VWS V14.00,2013-05-11 16:11:00,
2013-05-11 11:16:00,59.2,49.8,29.38,NNW,341,4.0,5.8,71,0.00,,---,0.00,VWS V14.00,2013-05-11 16:16:00,
2013-05-11 11:21:00,59.2,49.8,29.38,NNE,19,7.4,10.7,71,0.00,,---,0.00,VWS V14.00,2013-05-11 16:21:00,
2013-05-11 11:26:00,59.5,50.1,29.38,NW,322,4.0,5.8,71,0.00,,---,0.00,VWS V14.00,2013-05-11 16:26:00,
2013-05-11 11:31:00,60.1,50.7,29.38,WSW,250,0.0,6.6,71,0.00,,---,0.00,VWS V14.00,2013-05-11 16:31:00,
2013-05-11 11:36:00,60.4,50.6,29.38,North,4,12.4,15.9,70,0.00,,---,0.00,VWS V14.00,2013-05-11 16:36:00,
2013-05-11 11:41:00,60.3,50.1,29.38,NNE,12,8.1,10.7,69,0.00,,---,0.00,VWS V14.00,2013-05-11 16:41:00,
2013-05-11 11:46:00,60.4,49.8,29.38,NW,310,8.1,10.7,68,0.00,,---,0.00,VWS V14.00,2013-05-11 16:46:00,
2013-05-11 11:51:00,60.4,49.8,29.38,NNW,344,5.4,11.5,68,0.00,,---,0.00,VWS V14.00,2013-05-11 16:51:00,
2013-05-11 11:56:00,60.6,50.0,29.38,North,353,7.4,9.9,68,0.00,,---,0.00,VWS V14.00,2013-05-11 16:56:00,
2013-05-11 12:01:00,60.8,50.2,29.38,North,357,4.7,6.6,68,0.00,,---,0.00,VWS V14.00,2013-05-11 17:01:00,
2013-05-11 12:06:00,60.6,50.0,29.38,WNW,293,4.0,11.5,68,0.00,,---,0.00,VWS V14.00,2013-05-11 17:06:00,
2013-05-11 12:11:00,60.6,49.6,29.38,North,353,12.4,16.7,67,0.00,,---,0.00,VWS V14.00,2013-05-11 17:11:00,
2013-05-11 12:16:00,60.8,49.8,29.38,NNE,14,6.0,8.2,67,0.00,,---,0.00,VWS V14.00,2013-05-11 17:16:00,
2013-05-11 12:21:00,60.8,49.8,100.00,NW,326,4.0,7.4,67,0.00,,---,0.00,VWS V14.00,2013-05-11 17:21:00,
2013-05-11 12:26:00,60.8,49.8,100.00,North,353,4.0,9.9,67,0.00,,---,0.00,VWS V14.00,2013-05-11 17:26:00,
2013-05-11 12:31:00,62.1,50.6,100.00,North,357,9.4,12.3,66,0.00,,---,0.00,VWS V14.00,2013-05-11 17:31:00,
2013-05-11 12:36:00,62.6,50.3,29.38,NNW,336,8.7,11.5,64,0.00,,---,0.00,VWS V14.00,2013-05-11 17:36:00,
2013-05-11 12:41:00,62.8,50.4,29.38,North,6,8.1,12.3,64,0.00,,---,0.00,VWS V14.00,2013-05-11 17:41:00,
2013-05-11 12:46:00,62.6,49.4,29.38,WNW,296,4.7,6.6,62,0.00,,---,0.00,VWS V14.00,2013-05-11 17:46:00,
2013-05-11 12:51:00,62.4,49.2,29.38,North,353,4.0,8.2,62,0.00,,---,0.00,VWS V14.00,2013-05-11 17:51:00,
2013-05-11 12:56:00,62.2,49.5,29.38,NNW,336,10.1,13.1,63,0.00,,---,0.00,VWS V14.00,2013-05-11 17:56:00,
2013-05-11 13:01:00,63.0,50.2,29.38,North,0,8.7,11.5,63,0.00,,---,0.00,VWS V14.00,2013-05-11 18:01:00,
2013-05-11 13:06:00,63.0,50.2,29.35,North,5,10.7,19.1,63,0.00,,---,0.00,VWS V14.00,2013-05-11 18:06:00,
2013-05-11 13:11:00,63.0,50.2,29.35,NW,326,12.1,15.5,63,0.00,,---,0.00,VWS V14.00,2013-05-11 18:11:00,
2013-05-11 13:16:00,64.4,51.1,29.35,North,353,8.1,12.3,62,0.00,,---,0.00,VWS V14.00,2013-05-11 18:16:00,
2013-05-11 13:21:00,65.3,51.1,29.35,North,357,8.7,11.5,60,0.00,,---,0.00,VWS V14.00,2013-05-11 18:21:00,
2013-05-11 13:26:00,65.5,50.3,29.35,North,353,8.7,11.5,58,0.00,,---,0.00,VWS V14.00,2013-05-11 18:26:00,
2013-05-11 13:31:00,64.9,48.4,29.35,NW,309,11.4,14.7,55,0.00,,---,0.00,VWS V14.00,2013-05-11 18:31:00,
2013-05-11 13:36:00,64.9,48.9,29.35,NNW,343,11.4,14.7,56,0.00,,---,0.00,VWS V14.00,2013-05-11 18:36:00,
2013-05-11 13:41:00,65.1,49.5,29.35,NNW,346,4.0,7.4,57,0.00,,---,0.00,VWS V14.00,2013-05-11 18:41:00,
2013-05-11 13:46:00,64.9,48.9,29.35,WNW,289,3.4,6.6,56,0.00,,---,0.00,VWS V14.00,2013-05-11 18:46:00,
2013-05-11 13:51:00,64.8,48.7,29.35,North,2,4.0,9.9,56,0.00,,---,0.00,VWS V14.00,2013-05-11 18:51:00,
2013-05-11 13:56:00,64.8,48.7,29.35,NNW,329,8.1,11.5,56,0.00,,---,0.00,VWS V14.00,2013-05-11 18:56:00,
2013-05-11 14:01:00,65.3,49.2,29.35,NNW,341,12.1,15.5,56,0.00,,---,0.00,VWS V14.00,2013-05-11 19:01:00,
2013-05-11 14:06:00,65.8,49.7,29.35,NW,314,4.7,13.9,56,0.00,,---,0.00,VWS V14.00,2013-05-11 19:06:00,
2013-05-11 14:11:00,66.2,49.1,29.35,NNE,15,11.4,14.7,54,0.00,,---,0.00,VWS V14.00,2013-05-11 19:11:00,
2013-05-11 14:17:00,66.4,49.2,29.35,West,280,8.1,10.7,54,0.00,,---,0.00,VWS V14.00,2013-05-11 19:17:00,
2013-05-11 14:22:00,66.2,48.6,29.35,SW,215,7.4,11.5,53,0.00,,---,0.00,VWS V14.00,2013-05-11 19:22:00,
2013-05-11 14:27:00,66.2,48.6,29.35,NW,322,8.1,10.7,53,0.00,,---,0.00,VWS V14.00,2013-05-11 19:27:00,
2013-05-11 14:32:00,67.3,50.1,29.35,NNW,328,6.0,12.3,54,0.00,,---,0.00,VWS V14.00,2013-05-11 19:32:00,
2013-05-11 14:37:00,66.9,48.7,29.35,North,2,9.4,12.3,52,0.00,,---,0.00,VWS V14.00,2013-05-11 19:37:00,
2013-05-11 14:42:00,66.7,48.6,29.35,North,2,6.0,10.7,52,0.00,,---,0.00,VWS V14.00,2013-05-11 19:42:00,
2013-05-11 14:47:00,66.9,48.2,29.35,NNW,330,4.0,8.2,51,0.00,,---,0.00,VWS V14.00,2013-05-11 19:47:00,
2013-05-11 14:52:00,67.1,48.4,29.35,North,353,7.4,11.5,51,0.00,,---,0.00,VWS V14.00,2013-05-11 19:52:00,
2013-05-11 14:57:00,67.8,48.0,29.35,NNE,12,15.1,19.1,49,0.00,,---,0.00,VWS V14.00,2013-05-11 19:57:00,
2013-05-11 15:02:00,68.2,48.3,29.35,NW,319,4.0,11.5,49,0.00,,---,0.00,VWS V14.00,2013-05-11 20:02:00,
2013-05-11 15:07:00,68.2,47.8,29.35,North,6,4.7,6.6,48,0.00,,---,0.00,VWS V14.00,2013-05-11 20:07:00,
2013-05-11 15:12:00,68.7,48.8,29.35,NW,317,8.1,15.5,49,0.00,,---,0.00,VWS V14.00,2013-05-11 20:12:00,
2013-05-11 15:17:00,68.5,48.1,29.35,NW,315,6.0,14.7,48,0.00,,---,0.00,VWS V14.00,2013-05-11 20:17:00,
2013-05-11 15:22:00,68.0,46.5,29.35,North,11,6.7,9.1,46,0.00,,---,0.00,VWS V14.00,2013-05-11 20:22:00,
2013-05-11 15:27:00,68.5,47.5,29.35,SW,230,6.0,8.2,47,0.00,,---,0.00,VWS V14.00,2013-05-11 20:27:00,
2013-05-11 15:32:00,68.7,47.7,29.35,SW,227,9.4,12.3,47,0.00,,---,0.00,VWS V14.00,2013-05-11 20:32:00,
2013-05-11 15:37:00,68.7,47.1,29.35,North,357,4.7,10.7,46,0.00,,---,0.00,VWS V14.00,2013-05-11 20:37:00,
2013-05-11 15:42:00,68.7,47.1,29.35,WNW,294,8.7,11.5,46,0.00,,---,0.00,VWS V14.00,2013-05-11 20:42:00,
2013-05-11 15:47:00,68.7,46.5,29.35,NNW,329,8.1,10.7,45,0.00,,---,0.00,VWS V14.00,2013-05-11 20:47:00,
2013-05-11 15:52:00,68.7,46.5,29.35,West,280,6.0,8.2,45,0.00,,---,0.00,VWS V14.00,2013-05-11 20:52:00,
2013-05-11 15:57:00,68.9,46.7,29.35,NW,317,7.4,12.3,45,0.00,,---,0.00,VWS V14.00,2013-05-11 20:57:00,
2013-05-11 16:02:00,68.9,46.7,29.35,North,349,8.7,11.5,45,0.00,,---,0.00,VWS V14.00,2013-05-11 21:02:00,
2013-05-11 16:07:00,69.3,47.0,29.35,WNW,291,6.0,8.2,45,0.00,,---,0.00,VWS V14.00,2013-05-11 21:07:00,
2013-05-11 16:12:00,69.3,46.4,29.35,North,0,13.8,17.5,44,0.00,,---,0.00,VWS V14.00,2013-05-11 21:12:00,
2013-05-11 16:17:00,69.1,46.3,29.35,NW,316,5.4,12.3,44,0.00,,---,0.00,VWS V14.00,2013-05-11 21:17:00,
2013-05-11 16:22:00,69.1,46.3,29.35,West,263,5.4,7.4,44,0.00,,---,0.00,VWS V14.00,2013-05-11 21:22:00,
2013-05-11 16:27:00,69.4,46.6,29.35,NNW,327,0.0,6.6,44,0.00,,---,0.00,VWS V14.00,2013-05-11 21:27:00,
2013-05-11 16:32:00,69.3,46.4,29.35,NW,306,5.4,7.4,44,0.00,,---,0.00,VWS V14.00,2013-05-11 21:32:00,
2013-05-11 16:37:00,69.8,46.9,29.35,North,357,8.7,11.5,44,0.00,,---,0.00,VWS V14.00,2013-05-11 21:37:00,
2013-05-11 16:42:00,69.8,46.9,29.35,NW,317,5.4,7.4,44,0.00,,---,0.00,VWS V14.00,2013-05-11 21:42:00,
2013-05-11 16:47:00,69.4,46.6,29.35,NNW,339,4.7,6.6,44,0.00,,---,0.00,VWS V14.00,2013-05-11 21:47:00,
2013-05-11 16:52:00,69.6,47.4,29.32,NW,310,0.0,10.7,45,0.00,,---,0.00,VWS V14.00,2013-05-11 21:52:00,
2013-05-11 16:57:00,69.4,46.6,29.32,WSW,257,3.4,5.8,44,0.00,,---,0.00,VWS V14.00,2013-05-11 21:57:00,
2013-05-11 17:02:00,69.6,48.0,29.32,WNW,285,0.0,5.8,46,0.00,,---,0.00,VWS V14.00,2013-05-11 22:02:00,
2013-05-11 17:07:00,69.4,47.2,29.32,NNW,329,0.0,5.8,45,0.00,,---,0.00,VWS V14.00,2013-05-11 22:07:00,
2013-05-11 17:12:00,69.3,47.0,29.32,West,277,0.0,1.0,45,0.00,,---,0.00,VWS V14.00,2013-05-11 22:12:00,
2013-05-11 17:17:00,69.3,46.4,29.32,NNW,329,0.0,1.0,44,0.00,,---,0.00,VWS V14.00,2013-05-11 22:17:00,
2013-05-11 17:22:00,69.3,47.0,29.32,West,272,4.7,6.6,45,0.00,,---,0.00,VWS V14.00,2013-05-11 22:22:00,
2013-05-11 17:27:00,69.1,46.9,29.32,NNW,333,4.0,5.8,45,0.00,,---,0.00,VWS V14.00,2013-05-11 22:27:00,
2013-05-11 17:32:00,69.1,46.9,29.32,WSW,252,0.0,1.0,45,0.00,,---,0.00,VWS V14.00,2013-05-11 22:32:00,
2013-05-11 17:37:00,69.3,47.6,29.32,NW,304,3.4,5.0,46,0.00,,---,0.00,VWS V14.00,2013-05-11 22:37:00,
2013-05-11 17:42:00,69.3,47.6,29.32,West,263,4.0,5.8,46,0.00,,---,0.00,VWS V14.00,2013-05-11 22:42:00,
2013-05-11 17:47:00,69.3,47.6,29.32,West,280,0.0,1.0,46,0.00,,---,0.00,VWS V14.00,2013-05-11 22:47:00,
2013-05-11 17:52:00,69.4,48.3,29.32,WNW,296,0.0,1.0,47,0.00,,---,0.00,VWS V14.00,2013-05-11 22:52:00,
2013-05-11 17:57:00,69.3,48.2,29.32,SW,235,4.0,7.4,47,0.00,,---,0.00,VWS V14.00,2013-05-11 22:57:00,
2013-05-11 18:02:00,69.1,48.6,29.32,West,265,3.4,5.0,48,0.00,,---,0.00,VWS V14.00,2013-05-11 23:02:00,
2013-05-11 18:07:00,68.9,48.4,29.32,West,279,0.0,1.0,48,0.00,,---,0.00,VWS V14.00,2013-05-11 23:07:00,
2013-05-11 18:12:00,68.9,47.3,29.32,West,278,4.7,6.6,46,0.00,,---,0.00,VWS V14.00,2013-05-11 23:12:00,
2013-05-11 18:17:00,68.7,47.7,29.32,NW,324,0.0,1.0,47,0.00,,---,0.00,VWS V14.00,2013-05-11 23:17:00,
2013-05-11 18:22:00,68.5,48.6,29.32,NW,324,0.0,1.0,49,0.00,,---,0.00,VWS V14.00,2013-05-11 23:22:00,
2013-05-11 18:27:00,68.4,48.5,29.32,WSW,250,0.0,1.0,49,0.00,,---,0.00,VWS V14.00,2013-05-11 23:27:00,
2013-05-11 18:32:00,68.0,48.7,29.32,WSW,250,0.0,1.0,50,0.00,,---,0.00,VWS V14.00,2013-05-11 23:32:00,
2013-05-11 18:37:00,67.3,48.5,29.32,WSW,250,0.0,1.0,51,0.00,,---,0.00,VWS V14.00,2013-05-11 23:37:00,
2013-05-11 18:42:00,67.1,48.9,29.32,WNW,287,0.0,1.0,52,0.00,,---,0.00,VWS V14.00,2013-05-11 23:42:00,
2013-05-11 18:47:00,66.6,48.4,29.32,WNW,303,0.0,1.0,52,0.00,,---,0.00,VWS V14.00,2013-05-11 23:47:00,
2013-05-11 18:52:00,66.4,48.8,29.32,WNW,291,0.0,1.0,53,0.00,,---,0.00,VWS V14.00,2013-05-11 23:52:00,
2013-05-11 18:57:00,66.4,48.8,29.32,WNW,291,0.0,1.0,53,0.00,,---,0.00,VWS V14.00,2013-05-11 23:57:00,
2013-05-11 19:02:00,66.0,49.4,29.32,WNW,291,0.0,1.0,55,0.00,,---,0.00,VWS V14.00,2013-05-12 00:02:00,
2013-05-11 19:07:00,65.7,49.6,29.32,WNW,291,0.0,1.0,56,0.00,,---,0.00,VWS V14.00,2013-05-12 00:07:00,
2013-05-11 19:12:00,65.7,50.5,29.32,WNW,291,0.0,1.0,58,0.00,,---,0.00,VWS V14.00,2013-05-12 00:12:00,
2013-05-11 19:17:00,65.7,50.5,29.32,NW,311,0.0,1.0,58,0.00,,---,0.00,VWS V14.00,2013-05-12 00:17:00,
2013-05-11 19:22:00,65.7,50.5,29.32,NNE,22,12.1,15.5,58,0.00,,---,0.00,VWS V14.00,2013-05-12 00:22:00,
2013-05-11 19:27:00,65.7,50.5,29.32,NNW,338,8.7,11.5,58,0.00,,---,0.00,VWS V14.00,2013-05-12 00:27:00,
2013-05-11 19:32:00,65.5,49.4,29.32,North,0,8.1,10.7,56,0.00,,---,0.00,VWS V14.00,2013-05-12 00:32:00,
2013-05-11 19:37:00,65.5,49.4,29.32,North,3,12.4,15.9,56,0.00,,---,0.00,VWS V14.00,2013-05-12 00:37:00,
2013-05-11 19:42:00,65.3,49.2,29.35,North,350,4.7,6.6,56,0.00,,---,0.00,VWS V14.00,2013-05-12 00:42:00,
2013-05-11 19:47:00,64.8,49.7,29.35,NNE,17,8.7,11.5,58,0.00,,---,0.00,VWS V14.00,2013-05-12 00:47:00,
2013-05-11 19:52:00,64.4,49.3,29.35,NNE,12,5.4,7.4,58,0.00,,---,0.00,VWS V14.00,2013-05-12 00:52:00,
2013-05-11 19:57:00,63.9,49.7,29.35,North,0,4.7,7.4,60,0.00,,---,0.00,VWS V14.00,2013-05-12 00:57:00,
2013-05-11 20:02:00,63.5,50.3,29.35,NNE,17,5.4,7.4,62,0.00,,---,0.00,VWS V14.00,2013-05-12 01:02:00,
2013-05-11 20:07:00,63.3,50.1,29.35,North,4,4.0,5.8,62,0.00,,---,0.00,VWS V14.00,2013-05-12 01:07:00,
2013-05-11 20:12:00,62.8,50.4,29.35,North,4,0.0,1.0,64,0.00,,---,0.00,VWS V14.00,2013-05-12 01:12:00,
2013-05-11 20:17:00,62.2,51.2,29.35,NW,317,4.0,5.8,67,0.00,,---,0.00,VWS V14.00,2013-05-12 01:17:00,
2013-05-11 20:22:00,62.1,51.4,29.35,WNW,297,3.4,5.0,68,0.00,,---,0.00,VWS V14.00,2013-05-12 01:22:00,
2013-05-11 20:27:00,62.1,51.8,29.35,WNW,289,0.0,1.0,69,0.00,,---,0.00,VWS V14.00,2013-05-12 01:27:00,
2013-05-11 20:32:00,61.9,52.0,29.35,WNW,295,0.0,1.0,70,0.00,,---,0.00,VWS V14.00,2013-05-12 01:32:00,
2013-05-11 20:37:00,61.9,52.4,29.35,West,261,4.0,5.8,71,0.00,,---,0.00,VWS V14.00,2013-05-12 01:37:00,
2013-05-11 20:42:00,61.9,52.4,29.35,WNW,287,0.0,1.0,71,0.00,,---,0.00,VWS V14.00,2013-05-12 01:42:00,
2013-05-11 20:47:00,62.2,52.7,29.35,North,0,0.0,1.0,71,0.00,,---,0.00,VWS V14.00,2013-05-12 01:47:00,
2013-05-11 20:52:00,62.2,52.3,29.35,NNW,342,4.0,8.2,70,0.00,,---,0.00,VWS V14.00,2013-05-12 01:52:00,
2013-05-11 20:57:00,62.2,52.0,29.35,NNE,22,8.1,10.7,69,0.00,,---,0.00,VWS V14.00,2013-05-12 01:57:00,
2013-05-11 21:02:00,62.2,51.2,29.35,North,6,10.1,15.9,67,0.00,,---,0.00,VWS V14.00,2013-05-12 02:02:00,
2013-05-11 21:07:00,62.2,49.5,29.38,North,357,15.8,19.9,63,0.00,,---,0.00,VWS V14.00,2013-05-12 02:07:00,
2013-05-11 21:12:00,62.1,48.0,29.38,NNE,21,8.7,11.5,60,0.00,,---,0.00,VWS V14.00,2013-05-12 02:12:00,
2013-05-11 21:17:00,61.9,46.5,29.38,North,353,16.4,20.7,57,0.00,,---,0.00,VWS V14.00,2013-05-12 02:17:00,
2013-05-11 21:22:00,61.9,46.0,29.38,NE,35,12.1,15.5,56,0.00,,---,0.00,VWS V14.00,2013-05-12 02:22:00,
2013-05-11 21:27:00,61.7,45.4,29.38,NNE,27,12.4,15.9,55,0.00,,---,0.00,VWS V14.00,2013-05-12 02:27:00,
2013-05-11 21:32:00,61.5,44.7,29.41,North,0,12.4,15.9,54,0.00,,---,0.00,VWS V14.00,2013-05-12 02:32:00,
2013-05-11 21:37:00,61.2,43.4,29.41,North,357,16.4,20.7,52,0.00,,---,0.00,VWS V14.00,2013-05-12 02:37:00,
2013-05-11 21:42:00,61.0,42.7,29.41,North,357,12.4,15.9,51,0.00,,---,0.00,VWS V14.00,2013-05-12 02:42:00,
2013-05-11 21:47:00,60.8,41.5,29.41,North,6,19.8,24.8,49,0.00,,---,0.00,VWS V14.00,2013-05-12 02:47:00,
2013-05-11 21:52:00,60.6,40.8,29.41,NNE,28,12.1,15.5,48,0.00,,---,0.00,VWS V14.00,2013-05-12 02:52:00,
2013-05-11 21:57:00,60.3,40.5,29.41,North,10,12.4,15.9,48,0.00,,---,0.00,VWS V14.00,2013-05-12 02:57:00,
2013-05-11 22:02:00,60.1,39.8,29.41,North,10,15.8,19.9,47,0.00,,---,0.00,VWS V14.00,2013-05-12 03:02:00,
2013-05-11 22:07:00,59.7,39.5,29.41,North,353,15.1,19.1,47,0.00,,---,0.00,VWS V14.00,2013-05-12 03:07:00,
2013-05-11 22:12:00,59.4,39.2,29.41,NNE,19,8.7,11.5,47,0.00,,---,0.00,VWS V14.00,2013-05-12 03:12:00,
2013-05-11 22:17:00,59.4,39.7,29.41,NNE,13,16.4,20.7,48,0.00,,---,0.00,VWS V14.00,2013-05-12 03:17:00,
2013-05-11 22:22:00,59.2,39.5,29.44,NNE,20,15.1,19.1,48,0.00,,---,0.00,VWS V14.00,2013-05-12 03:22:00,
2013-05-11 22:27:00,59.0,38.8,29.44,NNE,25,13.1,21.5,47,0.00,,---,0.00,VWS V14.00,2013-05-12 03:27:00,
2013-05-11 22:32:00,58.8,39.2,29.44,North,357,13.1,16.7,48,0.00,,---,0.00,VWS V14.00,2013-05-12 03:32:00,
2013-05-11 22:37:00,58.5,38.9,29.44,NNE,14,9.4,15.5,48,0.00,,---,0.00,VWS V14.00,2013-05-12 03:37:00,
2013-05-11 22:42:00,58.5,38.9,29.44,NNE,15,9.4,12.3,48,0.00,,---,0.00,VWS V14.00,2013-05-12 03:42:00,
2013-05-11 22:47:00,57.9,38.4,29.44,North,8,9.4,12.3,48,0.00,,---,0.00,VWS V14.00,2013-05-12 03:47:00,
2013-05-11 22:52:00,57.7,38.2,29.44,NNE,18,16.4,20.7,48,0.00,,---,0.00,VWS V14.00,2013-05-12 03:52:00,
2013-05-11 22:57:00,57.6,37.5,29.44,North,353,9.4,12.3,47,0.00,,---,0.00,VWS V14.00,2013-05-12 03:57:00,
2013-05-11 23:01:00,57.6,37.5,29.44,North,9,6.0,12.3,47,0.00,,---,0.00,VWS V14.00,2013-05-12 04:01:00,
2013-05-11 23:06:00,57.6,37.5,29.44,North,11,12.4,20.7,47,0.00,,---,0.00,VWS V14.00,2013-05-12 04:06:00,
2013-05-11 23:11:00,57.4,35.7,29.44,North,11,12.4,16.7,44,0.00,,---,0.00,VWS V14.00,2013-05-12 04:11:00,
2013-05-11 23:16:00,57.0,35.3,29.44,North,353,12.1,15.9,44,0.00,,---,0.00,VWS V14.00,2013-05-12 04:16:00,
2013-05-11 23:21:00,56.8,35.2,29.47,North,357,15.8,19.9,44,0.00,,---,0.00,VWS V14.00,2013-05-12 04:21:00,
2013-05-11 23:26:00,56.8,35.2,29.47,NNE,19,16.4,20.7,44,0.00,,---,0.00,VWS V14.00,2013-05-12 04:26:00,
2013-05-11 23:31:00,56.8,34.6,29.47,NNE,19,16.4,20.7,43,0.00,,---,0.00,VWS V14.00,2013-05-12 04:31:00,
2013-05-11 23:36:00,56.7,33.8,29.47,NNE,25,14.4,19.9,42,0.00,,---,0.00,VWS V14.00,2013-05-12 04:36:00,
2013-05-11 23:41:00,56.5,33.7,29.47,NNE,14,19.1,24.0,42,0.00,,---,0.00,VWS V14.00,2013-05-12 04:41:00,
2013-05-11 23:46:00,56.3,33.5,29.47,NNE,21,13.1,16.7,42,0.00,,---,0.00,VWS V14.00,2013-05-12 04:46:00,
2013-05-11 23:51:00,55.9,32.6,29.47,NNE,25,12.4,15.9,41,0.00,,---,0.00,VWS V14.00,2013-05-12 04:51:00,
2013-05-11 23:56:00,55.8,33.0,29.47,North,11,12.1,15.5,42,0.00,,---,0.00,VWS V14.00,2013-05-12 04:56:00,